• Join FlightAware (Why Join?)
  • Login
  • US Flag 
08:03PM EST


 

Airport Tracker/Info


-or-


 

Live Flight TrackerFlight Track Log ✈ SWA407 ✈ 09-Apr-2013 ✈ KBUF - KBWI

Flight Track Log - Related Links

Times and Time Zones

All times are in EDT time to prevent confusion due to time zone crossing. See the SWA407 flight status page for this flight to view local times or setup timezone preferences in your user account.

Time Position Orientation Groundspeed Altitude Reporting Facility
EDT Latitude Longitude Course Direction KTS MPH feet Rate Location/Type
07:10PM 42.9500 -78.7167 48° Northeast 139 160 2,100  Level Buffalo TRACON
07:10PM 42.9833 -78.6667 48° Northeast 208 239 4,500 3,420 Climbing Buffalo TRACON
07:11PM 43.0269 -78.6067 45° Northeast 270 311 8,300 2,760 Climbing Cleveland Center
07:12PM 42.9903 -78.5397 127° Southeast 320 368 10,100 1,800 Climbing Cleveland Center
07:13PM 42.9133 -78.5478 184° South 260 299 12,000 2,460 Climbing Cleveland Center
07:14PM 42.8292 -78.5108 162° South 281 323 15,100 2,700 Climbing Cleveland Center
07:15PM 42.7403 -78.4347 148° Southeast 336 387 17,400 2,700 Climbing Cleveland Center
07:16PM 42.6453 -78.3589 150° Southeast 370 426 20,500 2,760 Climbing Cleveland Center
07:17PM 42.5497 -78.2778 148° Southeast 398 458 23,000 1,200 Climbing Cleveland Center
07:18PM 42.4458 -78.1942 149° Southeast 415 478 23,000  Level Cleveland Center
07:19PM 42.3356 -78.1056 149° Southeast 446 513 23,000  Level Cleveland Center
07:20PM 42.2294 -78.0172 148° Southeast 452 520 23,000  Level Cleveland Center
07:21PM 42.1064 -77.9214 150° Southeast 459 528 23,000  Level Cleveland Center
07:22PM 41.9981 -77.8339 149° Southeast 459 528 23,000  Level Cleveland Center
07:24PM 41.8614 -77.7250 149° Southeast 465 535 23,000  Level New York Center
07:25PM 41.7542 -77.6361 148° Southeast 465 535 23,000  Level New York Center
07:26PM 41.6306 -77.5400 150° Southeast 465 535 23,000  Level New York Center
07:27PM 41.5208 -77.4542 150° Southeast 465 535 23,000 -360 Level New York Center
07:28PM 41.4039 -77.3817 155° Southeast 465 535 22,300 -900 Descending New York Center
07:29PM 41.2864 -77.3233 160° South 460 529 21,300 -1,020 Descending New York Center
07:30PM 41.1697 -77.2872 167° South 448 516 20,300 -1,080 Descending New York Center
07:31PM 41.0528 -77.2539 168° South 448 516 19,300 -1,020 Descending New York Center
07:32PM 40.9381 -77.2156 166° South 443 510 18,300 -1,020 Descending New York Center
07:33PM 40.8336 -77.1808 166° South 438 504 17,300 -1,020 Descending New York Center
07:34PM 40.7231 -77.1458 167° South 428 493 16,300 -1,020 Descending New York Center
07:35PM 40.6122 -77.1111 167° South 415 478 15,300 -660 Descending New York Center
07:36PM 40.4933 -77.0728 166° South 410 472 15,000 -360 Descending New York Center
07:37PM 40.3972 -77.0422 166° South 410 472 14,700 -660 Descending New York Center
07:38PM 40.2761 -77.0039 166° South 410 472 13,700 -1,080 Descending New York Center
07:39PM 40.1167 -76.9500 166° South 399 459 12,100 -1,020 Descending Potomac TRACON
07:41PM 40.0008 -76.9225 166° South  Level FlightAware Approximate
07:41PM 39.9000 -76.8833 166° South 380 437 10,100  Level Potomac TRACON
07:42PM 39.8167 -76.8667 171° South 335 386 10,000 -540 Descending Potomac TRACON
07:43PM 39.7333 -76.8333 163° South 294 338 9,100 -960 Descending Potomac TRACON
07:44PM 39.6500 -76.8167 171° South 288 331 8,100 -1,020 Descending Potomac TRACON
07:46PM 39.5364 -76.7765 159° South  Level FlightAware Approximate
07:47PM 39.4667 -76.6167 270° West 275 316 5,100  Level Potomac TRACON
07:49PM 39.3503 -76.6374 142° Southeast  Level Estimated
07:50PM 39.2833 -76.4833 270° West 263 303 4,000  Level Potomac TRACON
07:52PM 39.2127 -76.6044 233° Southwest  Level Estimated
07:52PM 39.1500 -76.4667 233° Southwest 225 259 3,000  Level Potomac TRACON
07:53PM 39.1754 -76.6683 270° West  Level Estimated
07:53PM 39.1000 -76.5167 218° Southwest 197 227 3,000  Level Potomac TRACON
07:54PM 39.0667 -76.5500 218° Southwest 193 222 2,800 -480 Descending Potomac TRACON
07:55PM 39.1000 -76.6000 311° West 178 205 2,100 -960 Descending Potomac TRACON
07:56PM 39.1754 -76.6683 270° West  Level Estimated
07:56PM 39.1333 -76.6333 322° Northwest 158 182 1,000  Level Potomac TRACON
07:58PM 39.1818 -76.6538 169° South  Level FlightAware Approximate